CFG2CA EDDB-EDDF
Flight info
| Callsign | CFG2CA |
|---|---|
| Flight time | 0h 48m |
| Altitude | 28000 |
| Route | KISUC1N KISUC Z117 ODLUN DCT ORTAG T177 ODIPI T157 KERAX KERAX5D |
| Aircraft | A321/M-SDE3FGHIRWY/LB1 |
Departure
| Time | 2026-05-01 12:55 |
|---|---|
| Airport | Berlin Brandenburg Airport (EDDB) |
Arrival
| Time | 2026-05-01 13:44 |
|---|---|
| Airport | Frankfurt Main Airport (EDDF) |
| Time | Latitude | Longitude | Altitude | Speed | Heading |
|---|---|---|---|---|---|
| 2026-05-01 12:34 | 52.36164 | 13.51479 | 155 ft | 0 kts | 339° |
| 2026-05-01 12:47 | 52.36163 | 13.51479 | 155 ft | 1 kts | 339° |
| 2026-05-01 12:48 | 52.36140 | 13.51492 | 155 ft | 4 kts | 344° |
| 2026-05-01 12:48 | 52.36114 | 13.51502 | 155 ft | 4 kts | 354° |
| 2026-05-01 12:48 | 52.36088 | 13.51501 | 156 ft | 4 kts | 22° |
| 2026-05-01 12:48 | 52.36074 | 13.51484 | 155 ft | 0 kts | 69° |
| 2026-05-01 12:51 | 52.36077 | 13.51498 | 155 ft | 2 kts | 69° |
| 2026-05-01 12:52 | 52.36083 | 13.51521 | 155 ft | 3 kts | 69° |
| 2026-05-01 12:52 | 52.36112 | 13.51644 | 155 ft | 8 kts | 69° |
| 2026-05-01 12:52 | 52.36136 | 13.51747 | 155 ft | 11 kts | 71° |
| 2026-05-01 12:53 | 52.36100 | 13.52002 | 152 ft | 12 kts | 69° |
| 2026-05-01 12:53 | 52.36090 | 13.52118 | 151 ft | 11 kts | 139° |
| 2026-05-01 12:53 | 52.36024 | 13.52168 | 153 ft | 9 kts | 159° |
| 2026-05-01 12:54 | 52.35969 | 13.52203 | 155 ft | 9 kts | 159° |
| 2026-05-01 12:54 | 52.35845 | 13.52273 | 158 ft | 5 kts | 188° |
| 2026-05-01 12:54 | 52.35817 | 13.52211 | 159 ft | 15 kts | 247° |
| 2026-05-01 12:55 | 52.35407 | 13.50482 | 158 ft | 145 kts | 249° |
| 2026-05-01 12:55 | 52.34990 | 13.48733 | 367 ft | 173 kts | 249° |
| 2026-05-01 12:55 | 52.34546 | 13.46927 | 1118 ft | 171 kts | 249° |
| 2026-05-01 12:56 | 52.34028 | 13.45141 | 1687 ft | 181 kts | 237° |
| 2026-05-01 12:56 | 52.33156 | 13.43474 | 2013 ft | 204 kts | 229° |
| 2026-05-01 12:56 | 52.32157 | 13.41644 | 2388 ft | 227 kts | 229° |
| 2026-05-01 12:56 | 52.31095 | 13.39679 | 3257 ft | 231 kts | 230° |
| 2026-05-01 12:57 | 52.30027 | 13.37697 | 4199 ft | 234 kts | 229° |
| 2026-05-01 12:57 | 52.27827 | 13.33614 | 6004 ft | 244 kts | 227° |
| 2026-05-01 12:57 | 52.26693 | 13.31507 | 6860 ft | 250 kts | 227° |
| 2026-05-01 12:58 | 52.25532 | 13.29351 | 7706 ft | 255 kts | 227° |
| 2026-05-01 12:58 | 52.24424 | 13.27064 | 8545 ft | 261 kts | 238° |
| 2026-05-01 12:58 | 52.23620 | 13.24292 | 9083 ft | 283 kts | 247° |
| 2026-05-01 12:59 | 52.22059 | 13.18054 | 10493 ft | 305 kts | 247° |
| 2026-05-01 12:59 | 52.21250 | 13.14821 | 11287 ft | 310 kts | 247° |
| 2026-05-01 12:59 | 52.19554 | 13.08053 | 12335 ft | 344 kts | 247° |
| 2026-05-01 13:00 | 52.17638 | 13.00481 | 13444 ft | 371 kts | 247° |
| 2026-05-01 13:00 | 52.16653 | 12.96556 | 14235 ft | 376 kts | 249° |
| 2026-05-01 13:01 | 52.15364 | 12.88189 | 15711 ft | 385 kts | 257° |
| 2026-05-01 13:01 | 52.14769 | 12.83931 | 16521 ft | 387 kts | 257° |
| 2026-05-01 13:01 | 52.13547 | 12.75331 | 18099 ft | 394 kts | 257° |
| 2026-05-01 13:02 | 52.12932 | 12.71032 | 18830 ft | 397 kts | 257° |
| 2026-05-01 13:07 | 51.85249 | 11.84284 | 28405 ft | 432 kts | 233° |
| 2026-05-01 13:07 | 51.83333 | 11.80549 | 28406 ft | 432 kts | 227° |
| 2026-05-01 13:08 | 51.79238 | 11.73449 | 28403 ft | 431 kts | 226° |
| 2026-05-01 13:08 | 51.75105 | 11.66465 | 28406 ft | 429 kts | 226° |
| 2026-05-01 13:09 | 51.70984 | 11.59510 | 28408 ft | 428 kts | 226° |
| 2026-05-01 13:09 | 51.66877 | 11.52550 | 28403 ft | 428 kts | 226° |
| 2026-05-01 13:10 | 51.62773 | 11.45596 | 28396 ft | 428 kts | 226° |
| 2026-05-01 13:10 | 51.58658 | 11.38667 | 28396 ft | 428 kts | 226° |
| 2026-05-01 13:11 | 51.54547 | 11.31741 | 28390 ft | 428 kts | 226° |
| 2026-05-01 13:11 | 51.50429 | 11.24823 | 28389 ft | 428 kts | 226° |
| 2026-05-01 13:12 | 51.46302 | 11.17923 | 28377 ft | 428 kts | 226° |
| 2026-05-01 13:12 | 51.42169 | 11.11042 | 28376 ft | 428 kts | 225° |
| 2026-05-01 13:13 | 51.38064 | 11.04210 | 28370 ft | 428 kts | 225° |
| 2026-05-01 13:13 | 51.33931 | 10.97348 | 28380 ft | 428 kts | 225° |
| 2026-05-01 13:14 | 51.29800 | 10.90499 | 28368 ft | 428 kts | 225° |
| 2026-05-01 13:14 | 51.25648 | 10.83653 | 28366 ft | 427 kts | 225° |
| 2026-05-01 13:15 | 51.21503 | 10.76859 | 28361 ft | 428 kts | 225° |
| 2026-05-01 13:15 | 51.17355 | 10.70055 | 28359 ft | 428 kts | 225° |
| 2026-05-01 13:16 | 51.13228 | 10.63302 | 28287 ft | 430 kts | 225° |
| 2026-05-01 13:16 | 51.11139 | 10.59890 | 27992 ft | 428 kts | 225° |
| 2026-05-01 13:16 | 51.09066 | 10.56506 | 27435 ft | 425 kts | 225° |
| 2026-05-01 13:17 | 51.02936 | 10.46550 | 25776 ft | 415 kts | 225° |
| 2026-05-01 13:17 | 51.00927 | 10.43294 | 25239 ft | 411 kts | 225° |
| 2026-05-01 13:18 | 50.96958 | 10.36861 | 24239 ft | 404 kts | 225° |
| 2026-05-01 13:18 | 50.95004 | 10.33697 | 23740 ft | 400 kts | 224° |
| 2026-05-01 13:18 | 50.93069 | 10.30568 | 23245 ft | 394 kts | 224° |
| 2026-05-01 13:18 | 50.91159 | 10.27486 | 22798 ft | 388 kts | 224° |
| 2026-05-01 13:19 | 50.89279 | 10.24462 | 22355 ft | 382 kts | 224° |
| 2026-05-01 13:19 | 50.87421 | 10.21480 | 21907 ft | 378 kts | 224° |
| 2026-05-01 13:19 | 50.83765 | 10.15629 | 21010 ft | 370 kts | 224° |
| 2026-05-01 13:20 | 50.81959 | 10.12738 | 20555 ft | 367 kts | 223° |
| 2026-05-01 13:20 | 50.80163 | 10.09872 | 20099 ft | 365 kts | 223° |
| 2026-05-01 13:20 | 50.78382 | 10.07027 | 19639 ft | 364 kts | 223° |
| 2026-05-01 13:21 | 50.74833 | 10.01370 | 18700 ft | 361 kts | 223° |
| 2026-05-01 13:21 | 50.73070 | 9.98563 | 18196 ft | 359 kts | 223° |
| 2026-05-01 13:21 | 50.71316 | 9.95770 | 17735 ft | 356 kts | 223° |
| 2026-05-01 13:21 | 50.69583 | 9.93016 | 17276 ft | 353 kts | 223° |
| 2026-05-01 13:22 | 50.67860 | 9.90282 | 16834 ft | 350 kts | 223° |
| 2026-05-01 13:22 | 50.66147 | 9.87567 | 16386 ft | 348 kts | 223° |
| 2026-05-01 13:22 | 50.64440 | 9.84865 | 15943 ft | 347 kts | 223° |
| 2026-05-01 13:22 | 50.62743 | 9.82180 | 15500 ft | 345 kts | 223° |
| 2026-05-01 13:23 | 50.61060 | 9.79515 | 15069 ft | 344 kts | 223° |
| 2026-05-01 13:23 | 50.59396 | 9.76880 | 14627 ft | 343 kts | 223° |
| 2026-05-01 13:23 | 50.57718 | 9.74230 | 14184 ft | 341 kts | 223° |
| 2026-05-01 13:23 | 50.56044 | 9.71584 | 13703 ft | 340 kts | 222° |
| 2026-05-01 13:24 | 50.54378 | 9.68963 | 13247 ft | 337 kts | 222° |
| 2026-05-01 13:24 | 50.52723 | 9.66369 | 12792 ft | 335 kts | 222° |
| 2026-05-01 13:24 | 50.51079 | 9.63797 | 12341 ft | 333 kts | 222° |
| 2026-05-01 13:25 | 50.47885 | 9.58604 | 11458 ft | 331 kts | 230° |
| 2026-05-01 13:25 | 50.46671 | 9.55508 | 11331 ft | 335 kts | 242° |
| 2026-05-01 13:25 | 50.45656 | 9.52199 | 11343 ft | 337 kts | 242° |
| 2026-05-01 13:25 | 50.44627 | 9.48899 | 11348 ft | 337 kts | 241° |
| 2026-05-01 13:26 | 50.43587 | 9.45590 | 11341 ft | 338 kts | 241° |
| 2026-05-01 13:26 | 50.42545 | 9.42283 | 11336 ft | 338 kts | 241° |
| 2026-05-01 13:26 | 50.41508 | 9.38983 | 11336 ft | 337 kts | 241° |
| 2026-05-01 13:26 | 50.40474 | 9.35676 | 11339 ft | 338 kts | 241° |
| 2026-05-01 13:27 | 50.39443 | 9.32376 | 11338 ft | 337 kts | 241° |
| 2026-05-01 13:27 | 50.38427 | 9.29125 | 11331 ft | 323 kts | 241° |
| 2026-05-01 13:27 | 50.36472 | 9.22910 | 11338 ft | 329 kts | 241° |
| 2026-05-01 13:28 | 50.34416 | 9.16414 | 11336 ft | 334 kts | 241° |
| 2026-05-01 13:28 | 50.33382 | 9.13143 | 11340 ft | 334 kts | 241° |
| 2026-05-01 13:29 | 50.31319 | 9.06620 | 11337 ft | 335 kts | 241° |
| 2026-05-01 13:29 | 50.29250 | 9.00105 | 11335 ft | 334 kts | 241° |
| 2026-05-01 13:30 | 50.25086 | 8.87082 | 10902 ft | 333 kts | 240° |
| 2026-05-01 13:31 | 50.23033 | 8.80644 | 10419 ft | 329 kts | 241° |
| 2026-05-01 13:31 | 50.19990 | 8.71154 | 9653 ft | 325 kts | 240° |
| 2026-05-01 13:32 | 50.17974 | 8.64896 | 9142 ft | 321 kts | 240° |
| 2026-05-01 13:33 | 50.14980 | 8.55625 | 8380 ft | 317 kts | 240° |
| 2026-05-01 13:33 | 50.12996 | 8.49531 | 7883 ft | 314 kts | 240° |
| 2026-05-01 13:34 | 50.11083 | 8.43457 | 7392 ft | 313 kts | 246° |
| 2026-05-01 13:34 | 50.09574 | 8.37133 | 6910 ft | 311 kts | 246° |
| 2026-05-01 13:35 | 50.08051 | 8.30849 | 6407 ft | 308 kts | 246° |
| 2026-05-01 13:35 | 50.07307 | 8.27789 | 6190 ft | 297 kts | 246° |
| 2026-05-01 13:35 | 50.05897 | 8.21990 | 5813 ft | 276 kts | 245° |
| 2026-05-01 13:36 | 50.05220 | 8.19220 | 5690 ft | 272 kts | 245° |
| 2026-05-01 13:36 | 50.04389 | 8.16648 | 5564 ft | 260 kts | 235° |
| 2026-05-01 13:36 | 50.02535 | 8.12065 | 5310 ft | 242 kts | 229° |
| 2026-05-01 13:37 | 50.01304 | 8.10489 | 5185 ft | 225 kts | 198° |
| 2026-05-01 13:37 | 50.00306 | 8.10172 | 5117 ft | 220 kts | 176° |
| 2026-05-01 13:37 | 49.98421 | 8.11208 | 4972 ft | 219 kts | 140° |
| 2026-05-01 13:37 | 49.97540 | 8.13121 | 4773 ft | 221 kts | 117° |
| 2026-05-01 13:38 | 49.96418 | 8.17385 | 4374 ft | 205 kts | 112° |
| 2026-05-01 13:38 | 49.96303 | 8.19526 | 4167 ft | 202 kts | 75° |
| 2026-05-01 13:38 | 49.96880 | 8.21482 | 4018 ft | 196 kts | 71° |
| 2026-05-01 13:39 | 49.97357 | 8.23372 | 3981 ft | 180 kts | 73° |
| 2026-05-01 13:39 | 49.97786 | 8.25152 | 3792 ft | 172 kts | 73° |
| 2026-05-01 13:39 | 49.98204 | 8.26884 | 3569 ft | 171 kts | 72° |
| 2026-05-01 13:39 | 49.98617 | 8.28594 | 3331 ft | 166 kts | 72° |
| 2026-05-01 13:40 | 49.99018 | 8.30247 | 3106 ft | 162 kts | 73° |
| 2026-05-01 13:40 | 49.99410 | 8.31873 | 2876 ft | 161 kts | 72° |
| 2026-05-01 13:40 | 49.99803 | 8.33499 | 2639 ft | 160 kts | 73° |
| 2026-05-01 13:40 | 50.00183 | 8.35070 | 2424 ft | 150 kts | 73° |
| 2026-05-01 13:41 | 50.00542 | 8.36557 | 2246 ft | 143 kts | 73° |
| 2026-05-01 13:41 | 50.00879 | 8.37949 | 2026 ft | 133 kts | 74° |
| 2026-05-01 13:41 | 50.01202 | 8.39292 | 1850 ft | 132 kts | 73° |
| 2026-05-01 13:41 | 50.01524 | 8.40620 | 1626 ft | 131 kts | 71° |
| 2026-05-01 13:42 | 50.01841 | 8.41942 | 1440 ft | 130 kts | 73° |
| 2026-05-01 13:42 | 50.02153 | 8.43244 | 1236 ft | 129 kts | 73° |
| 2026-05-01 13:42 | 50.02360 | 8.44103 | 1113 ft | 128 kts | 73° |
| 2026-05-01 13:42 | 50.02675 | 8.45415 | 923 ft | 130 kts | 72° |
| 2026-05-01 13:43 | 50.02987 | 8.46717 | 755 ft | 127 kts | 73° |
| 2026-05-01 13:43 | 50.03299 | 8.48008 | 577 ft | 129 kts | 72° |
| 2026-05-01 13:43 | 50.03616 | 8.49330 | 400 ft | 128 kts | 71° |
| 2026-05-01 13:43 | 50.03918 | 8.50591 | 323 ft | 114 kts | 68° |
| 2026-05-01 13:44 | 50.04116 | 8.51423 | 331 ft | 53 kts | 70° |
| 2026-05-01 13:44 | 50.04215 | 8.51839 | 335 ft | 28 kts | 74° |
| 2026-05-01 13:44 | 50.04238 | 8.52075 | 339 ft | 18 kts | 89° |
| 2026-05-01 13:44 | 50.04226 | 8.52259 | 351 ft | 16 kts | 98° |
| 2026-05-01 13:45 | 50.04209 | 8.52412 | 349 ft | 13 kts | 99° |
| 2026-05-01 13:45 | 50.04194 | 8.52543 | 354 ft | 14 kts | 99° |
| 2026-05-01 13:45 | 50.04210 | 8.52715 | 353 ft | 16 kts | 70° |
| 2026-05-01 13:45 | 50.04250 | 8.52882 | 357 ft | 17 kts | 69° |
| 2026-05-01 13:46 | 50.04295 | 8.53070 | 357 ft | 20 kts | 70° |
| 2026-05-01 13:46 | 50.04337 | 8.53247 | 364 ft | 15 kts | 69° |
| 2026-05-01 13:46 | 50.04369 | 8.53379 | 371 ft | 13 kts | 70° |
| 2026-05-01 13:46 | 50.04397 | 8.53542 | 375 ft | 19 kts | 83° |
| 2026-05-01 13:47 | 50.04412 | 8.53767 | 376 ft | 22 kts | 84° |
| 2026-05-01 13:47 | 50.04428 | 8.54005 | 375 ft | 22 kts | 84° |
| 2026-05-01 13:47 | 50.04442 | 8.54207 | 375 ft | 17 kts | 84° |
| 2026-05-01 13:47 | 50.04452 | 8.54372 | 373 ft | 13 kts | 84° |
| 2026-05-01 13:48 | 50.04444 | 8.54525 | 372 ft | 14 kts | 104° |
| 2026-05-01 13:48 | 50.04402 | 8.54659 | 365 ft | 14 kts | 126° |
| 2026-05-01 13:48 | 50.04329 | 8.54757 | 358 ft | 12 kts | 149° |
| 2026-05-01 13:48 | 50.04233 | 8.54818 | 357 ft | 18 kts | 160° |
| 2026-05-01 13:49 | 50.04118 | 8.54882 | 355 ft | 14 kts | 160° |
| 2026-05-01 13:49 | 50.04031 | 8.54946 | 357 ft | 13 kts | 132° |
| 2026-05-01 13:49 | 50.04033 | 8.55074 | 360 ft | 14 kts | 70° |
| 2026-05-01 13:49 | 50.04074 | 8.55249 | 359 ft | 20 kts | 69° |
| 2026-05-01 13:50 | 50.04126 | 8.55465 | 355 ft | 22 kts | 69° |
| 2026-05-01 13:50 | 50.04180 | 8.55692 | 354 ft | 22 kts | 70° |
| 2026-05-01 13:50 | 50.04220 | 8.55858 | 358 ft | 15 kts | 69° |
| 2026-05-01 13:50 | 50.04254 | 8.56001 | 359 ft | 11 kts | 70° |
| 2026-05-01 13:51 | 50.04305 | 8.56067 | 359 ft | 10 kts | 5° |
| 2026-05-01 13:51 | 50.04376 | 8.56037 | 356 ft | 13 kts | 341° |
| 2026-05-01 13:51 | 50.04447 | 8.56097 | 358 ft | 13 kts | 63° |
| 2026-05-01 13:51 | 50.04480 | 8.56233 | 359 ft | 14 kts | 69° |
| 2026-05-01 13:52 | 50.04512 | 8.56367 | 356 ft | 11 kts | 69° |
| 2026-05-01 13:52 | 50.04557 | 8.56445 | 358 ft | 7 kts | 33° |
| 2026-05-01 13:52 | 50.04556 | 8.56506 | 364 ft | 6 kts | 108° |
| 2026-05-01 13:52 | 50.04539 | 8.56564 | 361 ft | 4 kts | 115° |
| 2026-05-01 13:53 | 50.04533 | 8.56584 | 358 ft | 1 kts | 115° |
| 2026-05-01 13:53 | 50.04533 | 8.56586 | 358 ft | 0 kts | 115° |